Time;durP1;ratioP1;P1;durP2;ratioP2;P2;SDS_P1;SDS_P2;PMS_P1;PMS_P2;Temp;Humidity;BMP_temperature;BMP_pressure;BME280_temperature;BME280_humidity;BME280_pressure;Samples;Min_cycle;Max_cycle;Signal;HPM_P1;HPM_P2
2021/01/02 00:02:01;;;;;;;22.02;13.00;;;1.60;99.60;;;;;;6256925;22;20020;-82
2021/01/02 00:04:58;;;;;;;25.13;14.20;;;1.60;99.60;;;;;;6232744;23;20004;-81
2021/01/02 00:07:41;;;;;;;25.20;14.18;;;1.60;99.70;;;;;;6228145;23;20022;-82
2021/01/02 00:10:09;;;;;;;25.40;14.88;;;1.60;99.70;;;;;;6239778;23;20034;-82
2021/01/02 00:13:06;;;;;;;25.00;14.57;;;1.60;99.80;;;;;;6257740;23;20015;-82
2021/01/02 00:16:10;;;;;;;23.83;13.07;;;1.60;99.60;;;;;;6222904;23;20381;-82
2021/01/02 00:18:51;;;;;;;21.30;12.27;;;1.60;99.60;;;;;;6244501;23;20012;-81
2021/01/02 00:21:26;;;;;;;27.88;15.32;;;1.60;99.50;;;;;;6249782;22;20184;-81
2021/01/02 00:24:04;;;;;;;24.77;13.50;;;1.60;99.40;;;;;;6222760;23;20070;-80
2021/01/02 00:26:35;;;;;;;26.63;14.63;;;1.60;99.60;;;;;;6250245;23;20000;-82
2021/01/02 00:29:04;;;;;;;20.98;11.82;;;1.70;99.60;;;;;;6223428;23;20035;-84
2021/01/02 00:32:05;;;;;;;24.63;13.63;;;1.70;99.60;;;;;;6249275;22;20012;-83
2021/01/02 00:34:51;;;;;;;21.00;12.70;;;1.70;99.50;;;;;;6224474;23;20004;-82
2021/01/02 00:37:20;;;;;;;27.80;13.85;;;1.70;99.60;;;;;;6223375;23;20004;-83
2021/01/02 00:40:05;;;;;;;24.08;13.10;;;1.70;99.60;;;;;;6249640;22;20004;-81
2021/01/02 00:42:32;;;;;;;24.73;14.02;;;1.70;99.70;;;;;;6249381;23;19996;-81
2021/01/02 00:45:00;;;;;;;24.23;13.82;;;1.70;99.60;;;;;;6228688;23;20015;-84
2021/01/02 00:47:27;;;;;;;24.65;13.55;;;1.70;99.70;;;;;;6239948;23;20060;-84
2021/01/02 00:49:57;;;;;;;20.75;12.65;;;1.70;99.70;;;;;;6265247;22;20015;-83
2021/01/02 00:52:45;;;;;;;24.60;13.00;;;1.70;99.60;;;;;;6247564;23;20455;-81
2021/01/02 00:55:32;;;;;;;23.38;13.45;;;1.70;99.60;;;;;;6222105;23;20424;-81
2021/01/02 00:58:22;;;;;;;24.17;13.85;;;1.70;99.60;;;;;;6249595;23;20011;-82
2021/01/02 01:00:58;;;;;;;24.70;14.68;;;1.70;99.50;;;;;;6249981;22;20336;-81
2021/01/02 01:03:48;;;;;;;27.85;15.65;;;1.70;99.50;;;;;;6250062;23;19996;-82
2021/01/02 01:06:16;;;;;;;26.00;15.77;;;1.70;99.30;;;;;;6253990;23;20004;-82
2021/01/02 01:08:45;;;;;;;25.88;14.93;;;1.70;99.40;;;;;;6223066;23;20058;-81
2021/01/02 01:11:13;;;;;;;27.55;14.30;;;1.60;99.40;;;;;;6248510;22;20006;-81
2021/01/02 01:13:40;;;;;;;25.92;15.18;;;1.60;99.80;;;;;;6249174;23;20289;-80
2021/01/02 01:16:06;;;;;;;23.83;13.75;;;1.70;99.50;;;;;;6221821;23;20004;-81
2021/01/02 01:18:50;;;;;;;22.20;12.82;;;1.70;99.40;;;;;;6221968;23;20355;-81
2021/01/02 01:21:16;;;;;;;23.83;13.50;;;1.70;99.40;;;;;;6222436;23;20008;-82
2021/01/02 01:24:01;;;;;;;21.48;12.98;;;1.70;99.40;;;;;;6223949;23;20014;-83
2021/01/02 01:26:48;;;;;;;21.20;11.90;;;1.70;99.40;;;;;;6221917;23;20004;-84
2021/01/02 01:29:40;;;;;;;23.90;13.60;;;1.70;99.40;;;;;;6265375;23;20044;-80
2021/01/02 01:32:07;;;;;;;25.92;13.75;;;1.70;99.40;;;;;;6253773;23;20000;-80
2021/01/02 01:34:34;;;;;;;21.70;12.10;;;1.70;99.40;;;;;;6222441;23;20387;-82
2021/01/02 01:37:03;;;;;;;23.60;13.02;;;1.70;99.40;;;;;;6249821;23;20393;-82
2021/01/02 01:39:31;;;;;;;21.25;12.55;;;1.70;99.50;;;;;;6248770;22;20007;-82
2021/01/02 01:42:05;;;;;;;19.85;11.52;;;1.70;99.50;;;;;;6250507;23;20000;-81
2021/01/02 01:44:55;;;;;;;19.60;12.38;;;1.70;99.70;;;;;;6226574;23;20001;-81
2021/01/02 01:47:42;;;;;;;26.67;14.98;;;1.70;99.30;;;;;;6256126;23;20087;-80
2021/01/02 01:50:25;;;;;;;24.95;13.68;;;1.70;99.20;;;;;;6227859;23;20013;-80
2021/01/02 01:52:51;;;;;;;22.50;13.05;;;1.70;99.40;;;;;;6252975;23;20079;-81
2021/01/02 01:55:35;;;;;;;23.08;13.63;;;1.70;99.40;;;;;;6250588;23;20000;-80
2021/01/02 01:58:36;;;;;;;22.65;11.55;;;1.70;99.70;;;;;;6249226;23;20000;-80
2021/01/02 02:01:03;;;;;;;19.48;11.55;;;1.80;99.50;;;;;;6248384;22;20022;-81
2021/01/02 02:03:35;;;;;;;18.55;10.70;;;1.70;99.40;;;;;;6249149;23;19996;-81
2021/01/02 02:06:22;;;;;;;19.17;11.35;;;1.80;99.40;;;;;;6248796;23;20076;-82
2021/01/02 02:08:58;;;;;;;19.80;11.73;;;1.80;99.30;;;;;;6249202;23;20008;-81
2021/01/02 02:11:36;;;;;;;20.00;10.02;;;1.80;99.40;;;;;;6249332;22;19996;-84
2021/01/02 02:14:36;;;;;;;20.38;11.38;;;1.80;99.40;;;;;;6222158;23;20000;-82
2021/01/02 02:17:05;;;;;;;21.63;12.60;;;1.80;99.50;;;;;;6222351;23;20000;-82
2021/01/02 02:19:57;;;;;;;18.80;11.90;;;1.80;99.40;;;;;;6248782;22;20404;-82
2021/01/02 02:22:27;;;;;;;21.88;11.90;;;1.80;99.50;;;;;;6249219;23;20004;-81
2021/01/02 02:24:55;;;;;;;19.75;11.90;;;1.80;99.50;;;;;;6247268;23;20004;-82
2021/01/02 02:27:28;;;;;;;20.98;12.52;;;1.80;99.50;;;;;;6221447;23;20140;-82
2021/01/02 02:29:57;;;;;;;20.00;11.93;;;1.80;99.60;;;;;;6248039;22;20011;-82
2021/01/02 02:32:26;;;;;;;21.55;12.30;;;1.80;99.60;;;;;;6248953;23;20000;-81
2021/01/02 02:34:52;;;;;;;20.73;12.63;;;1.80;99.60;;;;;;6248909;23;20525;-81
2021/01/02 02:37:18;;;;;;;22.40;12.93;;;1.70;99.90;;;;;;6248986;23;20408;-82
2021/01/02 02:39:47;;;;;;;26.00;14.73;;;1.80;99.90;;;;;;6251372;22;20000;-83
2021/01/02 02:42:16;;;;;;;19.40;12.75;;;1.70;99.80;;;;;;6249183;23;20008;-82
2021/01/02 02:44:46;;;;;;;22.42;14.30;;;1.70;99.90;;;;;;6247526;23;20028;-82
2021/01/02 02:47:16;;;;;;;19.00;11.73;;;1.70;99.90;;;;;;6249534;23;19996;-81
2021/01/02 02:49:46;;;;;;;21.42;12.32;;;1.70;99.90;;;;;;6248019;22;20008;-81
2021/01/02 02:52:24;;;;;;;23.15;12.35;;;1.70;99.90;;;;;;6221795;23;20004;-82
2021/01/02 02:54:51;;;;;;;23.10;12.98;;;1.70;99.90;;;;;;6250429;23;20001;-82
2021/01/02 02:57:17;;;;;;;23.55;13.52;;;1.70;99.90;;;;;;6251802;23;20071;-82
2021/01/02 02:59:43;;;;;;;21.98;12.32;;;1.80;99.70;;;;;;6255703;22;20056;-84
2021/01/02 03:02:10;;;;;;;25.13;13.85;;;1.80;99.60;;;;;;6270580;22;19992;-85
2021/01/02 03:04:36;;;;;;;23.00;13.75;;;1.70;99.60;;;;;;6270692;22;19993;-84
2021/01/02 03:07:06;;;;;;;22.30;12.77;;;1.80;99.70;;;;;;6270894;22;20029;-85
2021/01/02 03:09:33;;;;;;;23.60;11.60;;;1.70;99.50;;;;;;6244562;22;20037;-88
2021/01/02 03:11:59;;;;;;;15.65;9.80;;;1.70;99.10;;;;;;6269475;22;20007;-87
2021/01/02 03:14:25;;;;;;;17.52;10.55;;;1.70;99.30;;;;;;6271043;22;20035;-86
2021/01/02 03:17:00;;;;;;;15.32;10.20;;;1.70;99.10;;;;;;6271344;22;19992;-85
2021/01/02 03:19:27;;;;;;;14.35;9.05;;;1.70;99.10;;;;;;6244291;22;20075;-86
2021/01/02 03:21:53;;;;;;;18.05;10.15;;;1.70;98.90;;;;;;6242050;23;20007;-87
2021/01/02 03:24:18;;;;;;;14.55;9.52;;;1.70;98.90;;;;;;6268426;22;20056;-85
2021/01/02 03:26:45;;;;;;;13.90;8.45;;;1.70;98.80;;;;;;6268896;22;20015;-86
2021/01/02 03:29:10;;;;;;;15.15;8.00;;;1.70;98.80;;;;;;6269588;23;20004;-85
2021/01/02 03:31:36;;;;;;;16.08;8.88;;;1.70;98.80;;;;;;6269593;22;20047;-83
2021/01/02 03:34:02;;;;;;;18.35;10.32;;;1.70;98.70;;;;;;6269654;22;19999;-81
2021/01/02 03:36:27;;;;;;;16.40;10.18;;;1.80;98.30;;;;;;6242608;23;19988;-83
2021/01/02 03:38:55;;;;;;;17.75;9.20;;;1.70;98.20;;;;;;6241343;22;20034;-85
2021/01/02 03:41:22;;;;;;;15.90;9.48;;;1.70;98.30;;;;;;6236053;23;20013;-81
2021/01/02 03:43:49;;;;;;;16.42;9.88;;;1.70;98.10;;;;;;6243582;23;20103;-81
2021/01/02 03:46:14;;;;;;;14.77;8.70;;;1.70;98.40;;;;;;6216545;23;20004;-81
2021/01/02 03:48:40;;;;;;;17.50;10.23;;;1.70;98.50;;;;;;6216393;23;20011;-82
2021/01/02 03:51:06;;;;;;;16.35;9.25;;;1.70;98.50;;;;;;6241873;23;20340;-81
2021/01/02 03:53:32;;;;;;;14.27;7.85;;;1.70;98.50;;;;;;6216742;23;20396;-80
2021/01/02 03:55:57;;;;;;;14.95;8.63;;;1.70;98.50;;;;;;6243289;23;20028;-80
2021/01/02 03:58:23;;;;;;;15.60;8.32;;;1.70;98.20;;;;;;6219631;23;20083;-80
2021/01/02 04:00:48;;;;;;;14.85;8.48;;;1.70;98.20;;;;;;6246045;22;20361;-81
2021/01/02 04:03:14;;;;;;;14.20;7.90;;;1.70;98.30;;;;;;6219959;23;19996;-82
2021/01/02 04:05:44;;;;;;;16.50;8.80;;;1.70;98.10;;;;;;6246464;23;20007;-81
2021/01/02 04:08:10;;;;;;;14.15;7.93;;;1.70;98.20;;;;;;6258985;23;20087;-84
2021/01/02 04:10:36;;;;;;;13.73;7.72;;;1.60;98.10;;;;;;6239235;23;20063;-83
2021/01/02 04:13:01;;;;;;;13.80;7.40;;;1.70;98.20;;;;;;6232857;23;20008;-82
2021/01/02 04:15:27;;;;;;;14.73;8.52;;;1.70;98.20;;;;;;6233239;23;20004;-81
2021/01/02 04:17:53;;;;;;;12.70;6.95;;;1.70;98.00;;;;;;6224748;23;20305;-83
2021/01/02 04:20:19;;;;;;;12.05;7.47;;;1.60;97.80;;;;;;6224467;23;20023;-83
2021/01/02 04:22:44;;;;;;;11.88;7.45;;;1.70;97.90;;;;;;6223583;23;20000;-83
2021/01/02 04:25:10;;;;;;;16.15;8.05;;;1.70;98.00;;;;;;6249966;23;20000;-84
2021/01/02 04:27:36;;;;;;;14.73;7.85;;;1.70;97.90;;;;;;6259383;23;19996;-82
2021/01/02 04:30:03;;;;;;;14.35;8.45;;;1.60;97.50;;;;;;6250221;22;20000;-82
2021/01/02 04:32:28;;;;;;;11.27;6.75;;;1.60;97.50;;;;;;6225619;23;20015;-82
2021/01/02 04:34:54;;;;;;;11.57;6.20;;;1.50;97.70;;;;;;6250949;23;20004;-81
2021/01/02 04:37:26;;;;;;;9.88;6.38;;;1.50;97.90;;;;;;6250780;23;20000;-83
2021/01/02 04:39:51;;;;;;;10.98;7.25;;;1.40;98.10;;;;;;6231019;23;20038;-80
2021/01/02 04:42:17;;;;;;;16.45;8.20;;;1.40;98.20;;;;;;6262801;23;20004;-82
2021/01/02 04:44:43;;;;;;;13.25;7.80;;;1.30;98.10;;;;;;6251273;23;20123;-83
2021/01/02 04:47:11;;;;;;;14.63;6.57;;;1.20;98.30;;;;;;6222143;23;20031;-83
2021/01/02 04:49:36;;;;;;;12.88;7.45;;;1.10;98.60;;;;;;6249064;22;20000;-82
2021/01/02 04:52:02;;;;;;;12.55;7.55;;;1.10;98.90;;;;;;6249483;23;20359;-82
2021/01/02 04:54:28;;;;;;;12.80;7.95;;;1.00;98.90;;;;;;6249722;23;20440;-81
2021/01/02 04:56:54;;;;;;;13.27;7.90;;;1.00;98.90;;;;;;6249292;23;20027;-81
2021/01/02 04:59:29;;;;;;;13.93;7.82;;;0.90;99.00;;;;;;6221700;23;19996;-83
2021/01/02 05:01:58;;;;;;;13.95;7.70;;;0.90;99.20;;;;;;6222799;23;20316;-83
2021/01/02 05:04:23;;;;;;;16.80;8.18;;;0.90;99.40;;;;;;6249582;23;20003;-84
2021/01/02 05:06:49;;;;;;;11.63;7.68;;;0.80;99.50;;;;;;6221826;23;19997;-81
2021/01/02 05:09:14;;;;;;;14.65;7.60;;;0.80;99.50;;;;;;6222714;23;20248;-81
2021/01/02 05:11:40;;;;;;;13.60;7.72;;;0.80;99.60;;;;;;6222961;23;20050;-82
2021/01/02 05:14:09;;;;;;;12.95;7.32;;;0.80;99.70;;;;;;6248968;23;20094;-81
2021/01/02 05:16:37;;;;;;;14.32;7.90;;;0.80;99.70;;;;;;6248624;23;20016;-82
2021/01/02 05:19:04;;;;;;;11.75;7.47;;;0.80;99.90;;;;;;6247802;23;20428;-82
2021/01/02 05:21:31;;;;;;;15.10;9.05;;;0.80;99.90;;;;;;6248256;22;20313;-82
2021/01/02 05:24:05;;;;;;;15.13;7.90;;;0.80;99.90;;;;;;6247718;23;20428;-81
2021/01/02 05:26:31;;;;;;;14.07;8.20;;;0.90;99.90;;;;;;6222008;23;20004;-84
2021/01/02 05:29:17;;;;;;;13.27;7.95;;;1.00;99.90;;;;;;6226294;23;20004;-81
2021/01/02 05:32:01;;;;;;;15.10;8.05;;;1.00;99.70;;;;;;6224903;23;20018;-83
2021/01/02 05:34:29;;;;;;;15.73;8.48;;;1.10;99.60;;;;;;6249091;23;20476;-81
2021/01/02 05:37:08;;;;;;;11.93;7.15;;;1.10;99.60;;;;;;6222120;23;20004;-82
2021/01/02 05:39:43;;;;;;;13.77;8.20;;;1.20;99.30;;;;;;6222286;22;20000;-82
2021/01/02 05:42:10;;;;;;;15.85;8.25;;;1.20;99.20;;;;;;6221957;23;20059;-82
2021/01/02 05:44:38;;;;;;;14.07;7.85;;;1.20;99.20;;;;;;6248584;23;20007;-83
2021/01/02 05:47:04;;;;;;;15.98;9.65;;;1.20;99.20;;;;;;6247831;23;19996;-81
2021/01/02 05:49:40;;;;;;;12.77;7.68;;;1.20;99.20;;;;;;6247797;22;20000;-83
2021/01/02 05:52:10;;;;;;;15.98;8.60;;;1.20;99.30;;;;;;6248591;23;20023;-82
2021/01/02 05:54:51;;;;;;;14.00;8.15;;;1.20;99.10;;;;;;6219875;23;20004;-80
2021/01/02 05:57:27;;;;;;;17.20;8.80;;;1.20;99.10;;;;;;6220714;23;20164;-81
2021/01/02 05:59:54;;;;;;;16.40;9.48;;;1.20;99.00;;;;;;6220626;23;20004;-84
2021/01/02 06:02:29;;;;;;;15.52;8.65;;;1.20;98.80;;;;;;6220539;23;20011;-81
2021/01/02 06:05:09;;;;;;;15.95;8.45;;;1.20;98.90;;;;;;6219836;23;20004;-81
2021/01/02 06:07:40;;;;;;;18.48;9.82;;;1.20;98.90;;;;;;6220421;23;20023;-85
2021/01/02 06:10:08;;;;;;;16.20;8.93;;;1.10;98.90;;;;;;6220992;23;20066;-84
2021/01/02 06:12:39;;;;;;;16.67;8.95;;;1.10;98.80;;;;;;6221242;23;20008;-83
2021/01/02 06:15:14;;;;;;;17.10;9.80;;;1.10;98.90;;;;;;6223181;23;20004;-81
2021/01/02 06:17:41;;;;;;;16.67;9.88;;;1.10;98.80;;;;;;6251777;23;20032;-81
2021/01/02 06:20:09;;;;;;;14.93;9.07;;;1.10;98.80;;;;;;6221826;23;20036;-82
2021/01/02 06:22:36;;;;;;;16.60;8.98;;;1.00;98.70;;;;;;6248807;23;19996;-83
2021/01/02 06:25:03;;;;;;;15.98;9.40;;;1.00;98.70;;;;;;6246801;23;20379;-81
2021/01/02 06:27:29;;;;;;;13.55;8.48;;;1.00;98.80;;;;;;6219586;23;20085;-81
2021/01/02 06:29:57;;;;;;;18.83;9.52;;;1.00;98.80;;;;;;6220530;23;20004;-83
2021/01/02 06:32:25;;;;;;;15.50;9.27;;;1.00;98.70;;;;;;6247623;23;20046;-80
2021/01/02 06:35:06;;;;;;;17.30;9.70;;;1.00;98.70;;;;;;6219847;23;20004;-80
2021/01/02 06:38:05;;;;;;;16.45;10.05;;;1.00;98.70;;;;;;6247679;23;20008;-81
2021/01/02 06:40:37;;;;;;;17.90;9.45;;;1.00;98.70;;;;;;6180929;22;20008;-81
2021/01/02 06:43:10;;;;;;;19.23;10.15;;;1.00;98.70;;;;;;6247667;23;20000;-79
2021/01/02 06:45:35;;;;;;;15.40;7.85;;;0.90;98.80;;;;;;6253691;23;20023;-81
2021/01/02 06:48:16;;;;;;;18.02;10.50;;;1.00;99.00;;;;;;6233880;23;20092;-80
2021/01/02 06:50:49;;;;;;;16.80;10.25;;;0.90;98.60;;;;;;6230963;23;20004;-79
2021/01/02 06:53:25;;;;;;;17.75;9.60;;;0.90;98.70;;;;;;6249791;23;20067;-80
2021/01/02 06:56:08;;;;;;;18.65;10.60;;;0.90;99.00;;;;;;6217344;23;20000;-79
2021/01/02 06:58:44;;;;;;;16.98;8.98;;;0.90;99.10;;;;;;6246961;23;20004;-79
2021/01/02 07:01:15;;;;;;;15.13;9.57;;;1.00;99.30;;;;;;6246696;22;20054;-81
2021/01/02 07:03:41;;;;;;;16.27;9.63;;;1.00;99.30;;;;;;6221193;23;20325;-80
2021/01/02 07:06:24;;;;;;;14.32;8.70;;;1.00;99.00;;;;;;6249215;23;19996;-82
2021/01/02 07:09:09;;;;;;;16.10;9.38;;;1.00;99.10;;;;;;6248208;23;20010;-81
2021/01/02 07:11:39;;;;;;;17.30;10.32;;;1.00;99.00;;;;;;6222268;23;20004;-81
2021/01/02 07:14:07;;;;;;;16.42;8.52;;;1.00;98.80;;;;;;6248176;23;20051;-82
2021/01/02 07:16:43;;;;;;;22.00;13.43;;;1.00;99.00;;;;;;6248793;23;20447;-81
2021/01/02 07:19:29;;;;;;;17.95;11.10;;;0.90;98.80;;;;;;6222369;23;20012;-82
2021/01/02 07:22:16;;;;;;;16.20;9.60;;;0.90;99.20;;;;;;6223374;23;20004;-82
2021/01/02 07:24:48;;;;;;;17.05;9.77;;;0.90;99.60;;;;;;6207462;23;20595;-80
2021/01/02 07:27:18;;;;;;;19.50;11.18;;;0.90;99.50;;;;;;6257444;23;19996;-81
2021/01/02 07:29:52;;;;;;;19.02;11.05;;;1.00;99.60;;;;;;6232849;22;20008;-81
2021/01/02 07:32:20;;;;;;;17.02;9.93;;;1.00;99.40;;;;;;6251568;23;20359;-81
2021/01/02 07:34:54;;;;;;;17.60;10.38;;;1.00;99.20;;;;;;6260810;23;20001;-81
2021/01/02 07:37:24;;;;;;;18.63;10.82;;;1.00;99.10;;;;;;6261677;23;20042;-79
2021/01/02 07:40:07;;;;;;;17.77;10.82;;;1.00;99.20;;;;;;6248743;22;20503;-82
2021/01/02 07:42:35;;;;;;;19.67;10.90;;;1.00;99.10;;;;;;6224152;23;20420;-82
2021/01/02 07:45:08;;;;;;;19.27;11.90;;;1.00;99.10;;;;;;6252462;23;19993;-82
2021/01/02 07:47:35;;;;;;;18.52;10.43;;;1.00;99.10;;;;;;6251655;23;19992;-81
2021/01/02 07:50:12;;;;;;;18.10;11.30;;;1.00;99.20;;;;;;6251275;22;20011;-80
2021/01/02 07:52:56;;;;;;;18.85;10.98;;;1.00;99.40;;;;;;6249487;23;20020;-79
2021/01/02 07:55:27;;;;;;;24.60;13.40;;;1.00;99.30;;;;;;6246555;23;20109;-79
2021/01/02 07:57:53;;;;;;;18.95;11.13;;;0.90;98.80;;;;;;6220161;23;20028;-79
2021/01/02 08:00:20;;;;;;;23.52;13.57;;;0.80;99.40;;;;;;6246939;22;20083;-80
2021/01/02 08:02:46;;;;;;;26.70;13.65;;;0.80;99.60;;;;;;6221177;23;20004;-80
2021/01/02 08:05:16;;;;;;;24.50;13.27;;;0.80;99.50;;;;;;6248642;23;20000;-81
2021/01/02 08:07:54;;;;;;;25.77;14.88;;;0.90;99.70;;;;;;6257366;23;20008;-77
2021/01/02 08:10:20;;;;;;;26.50;14.50;;;0.90;99.50;;;;;;6255312;22;20000;-80
2021/01/02 08:12:47;;;;;;;20.40;11.60;;;0.80;99.40;;;;;;6222941;23;20030;-80
2021/01/02 08:15:29;;;;;;;18.63;11.25;;;0.90;99.70;;;;;;6247446;23;20012;-79
2021/01/02 08:18:00;;;;;;;22.73;12.70;;;0.90;99.50;;;;;;6248980;23;20058;-79
2021/01/02 08:20:26;;;;;;;18.35;10.13;;;1.00;99.30;;;;;;6251065;22;20039;-80
2021/01/02 08:22:53;;;;;;;16.33;10.35;;;1.10;99.20;;;;;;6247333;23;20000;-79
2021/01/02 08:25:20;;;;;;;20.83;11.75;;;1.10;98.90;;;;;;6245939;23;20000;-79
2021/01/02 08:27:48;;;;;;;18.52;10.40;;;1.10;98.90;;;;;;6222316;23;20334;-76
2021/01/02 08:30:15;;;;;;;26.08;15.15;;;1.10;98.30;;;;;;6245835;22;20031;-78
2021/01/02 08:32:44;;;;;;;24.08;13.70;;;1.10;98.50;;;;;;6254672;23;20060;-79
2021/01/02 08:35:25;;;;;;;26.48;14.48;;;1.10;98.80;;;;;;6247487;23;20000;-79
2021/01/02 08:37:51;;;;;;;19.42;11.38;;;1.10;98.40;;;;;;6220791;23;20008;-80
2021/01/02 08:40:18;;;;;;;21.83;13.25;;;1.10;98.60;;;;;;6246682;22;20011;-80
2021/01/02 08:42:47;;;;;;;15.02;9.02;;;1.10;97.90;;;;;;6220323;23;20343;-80
2021/01/02 08:45:14;;;;;;;16.50;9.02;;;1.10;98.10;;;;;;6220040;23;20008;-80
2021/01/02 08:47:40;;;;;;;20.02;11.85;;;1.20;97.90;;;;;;6219687;23;20341;-79
2021/01/02 08:50:12;;;;;;;19.67;10.05;;;1.30;97.40;;;;;;6220462;23;20011;-78
2021/01/02 08:52:38;;;;;;;17.90;9.73;;;1.30;97.60;;;;;;6247333;23;20027;-79
2021/01/02 08:55:15;;;;;;;19.60;11.57;;;1.40;97.40;;;;;;6246971;23;20004;-78
2021/01/02 21:48:42;;;;;;;44.08;18.33;;;-1.10;99.90;;;;;;6264183;22;21089;-84
2021/01/02 21:51:16;;;;;;;45.90;17.50;;;-1.10;99.90;;;;;;6212679;23;20015;-83
2021/01/02 21:53:41;;;;;;;42.47;16.67;;;-1.10;99.90;;;;;;6263790;23;19984;-84
2021/01/02 21:56:07;;;;;;;43.28;15.50;;;-1.10;99.90;;;;;;6237111;23;20000;-84
2021/01/02 21:58:33;;;;;;;41.53;15.20;;;-1.10;99.90;;;;;;6263666;23;20001;-85
2021/01/02 22:01:03;;;;;;;48.42;17.67;;;-1.10;99.90;;;;;;6236393;23;20004;-84
2021/01/02 22:03:31;;;;;;;64.95;24.65;;;-1.00;99.90;;;;;;6240725;23;20000;-87
2021/01/02 22:06:00;;;;;;;66.07;24.35;;;-1.00;99.90;;;;;;6243304;23;20011;-85
2021/01/02 22:08:26;;;;;;;61.05;23.08;;;-1.10;99.90;;;;;;6271228;23;19996;-88
2021/01/02 22:10:52;;;;;;;61.47;23.65;;;-1.10;99.90;;;;;;6269500;23;20000;-86
2021/01/02 22:13:26;;;;;;;69.20;23.48;;;-1.10;99.90;;;;;;6244830;23;20030;-86
2021/01/02 22:15:54;;;;;;;71.80;24.55;;;-1.10;99.90;;;;;;6245399;23;20004;-86
2021/01/02 22:18:38;;;;;;;61.95;22.70;;;-1.10;99.90;;;;;;6245922;23;19996;-86
2021/01/02 22:21:04;;;;;;;74.75;25.75;;;-1.10;99.90;;;;;;6244377;23;20059;-86
2021/01/02 22:23:33;;;;;;;64.10;22.42;;;-1.10;99.90;;;;;;6245092;23;20067;-85
2021/01/02 22:26:01;;;;;;;63.97;24.23;;;-1.10;99.90;;;;;;6244284;23;20069;-86
2021/01/02 22:28:29;;;;;;;68.10;21.85;;;-1.10;99.90;;;;;;6270290;22;20011;-87
2021/01/02 22:30:55;;;;;;;62.58;22.27;;;-1.10;99.90;;;;;;6242323;23;20065;-86
2021/01/02 22:33:21;;;;;;;67.40;22.27;;;-1.10;99.90;;;;;;6243951;23;20012;-87
2021/01/02 22:35:47;;;;;;;50.30;19.67;;;-1.20;99.90;;;;;;6245080;23;19988;-86
2021/01/02 22:38:12;;;;;;;51.65;19.27;;;-1.10;99.90;;;;;;6237189;23;20019;-86
2021/01/02 22:40:41;;;;;;;57.47;21.73;;;-1.10;99.90;;;;;;6236701;23;19992;-85
2021/01/02 22:43:08;;;;;;;53.15;18.48;;;-1.10;99.90;;;;;;6264404;23;20060;-85
2021/01/02 22:45:37;;;;;;;50.75;20.13;;;-1.00;99.90;;;;;;6237395;23;20011;-84
2021/01/02 22:48:06;;;;;;;55.72;20.77;;;-1.00;99.90;;;;;;6236706;23;20010;-84
2021/01/02 22:50:32;;;;;;;49.38;18.25;;;-1.00;99.90;;;;;;6237527;23;20015;-84
2021/01/02 22:52:58;;;;;;;51.53;20.90;;;-0.90;99.90;;;;;;6236505;23;19999;-85
2021/01/02 22:55:27;;;;;;;53.58;20.33;;;-1.00;99.90;;;;;;6237954;23;20001;-85
2021/01/02 22:58:05;;;;;;;53.95;19.27;;;-1.00;99.90;;;;;;6238009;23;20004;-85
2021/01/02 23:00:30;;;;;;;50.35;18.88;;;-0.90;99.90;;;;;;6265041;23;20004;-86
2021/01/02 23:02:59;;;;;;;51.88;22.00;;;-0.90;99.90;;;;;;6240061;23;20056;-86
2021/01/02 23:05:30;;;;;;;48.53;19.02;;;-0.80;99.90;;;;;;6245068;23;20005;-86
2021/01/02 23:07:59;;;;;;;50.60;18.20;;;-0.80;99.90;;;;;;6272326;22;20018;-85
2021/01/02 23:10:25;;;;;;;58.58;20.80;;;-0.70;99.90;;;;;;6247236;22;20012;-85
2021/01/02 23:12:51;;;;;;;55.08;21.98;;;-0.70;99.90;;;;;;6244855;23;20007;-85
2021/01/02 23:15:19;;;;;;;49.53;20.70;;;-0.70;99.90;;;;;;6240036;23;20068;-84
2021/01/02 23:17:54;;;;;;;46.13;18.30;;;-0.70;99.90;;;;;;6238571;23;20004;-87
2021/01/02 23:20:20;;;;;;;49.75;20.30;;;-0.70;99.90;;;;;;6238027;23;20033;-84
2021/01/02 23:22:50;;;;;;;59.25;22.90;;;-0.70;99.90;;;;;;6237604;23;20000;-85
2021/01/02 23:25:25;;;;;;;58.63;22.67;;;-0.80;99.90;;;;;;6237159;23;20087;-86
2021/01/02 23:27:51;;;;;;;47.92;18.13;;;-0.90;99.90;;;;;;6236859;23;20000;-84
2021/01/02 23:30:19;;;;;;;49.30;19.63;;;-0.90;99.90;;;;;;6236967;23;20004;-85
2021/01/02 23:32:50;;;;;;;53.50;19.55;;;-0.80;99.90;;;;;;6236791;23;20031;-86
2021/01/02 23:35:17;;;;;;;48.97;20.38;;;-0.70;99.90;;;;;;6264082;23;20003;-85
2021/01/02 23:37:53;;;;;;;57.05;22.67;;;-0.70;99.90;;;;;;6263762;23;20034;-87
2021/01/02 23:40:19;;;;;;;52.60;21.10;;;-0.70;99.90;;;;;;6236676;23;20000;-85
2021/01/02 23:42:49;;;;;;;49.20;21.02;;;-0.70;99.90;;;;;;6238089;23;20027;-86
2021/01/02 23:45:22;;;;;;;49.85;19.48;;;-0.80;99.90;;;;;;6236601;23;20008;-85
2021/01/02 23:47:51;;;;;;;55.67;20.55;;;-0.70;99.90;;;;;;6240337;23;20004;-86
2021/01/02 23:50:24;;;;;;;50.00;19.88;;;-0.70;99.90;;;;;;6270293;22;20012;-86
2021/01/02 23:52:50;;;;;;;57.10;24.02;;;-0.70;99.90;;;;;;6267615;23;20003;-85
2021/01/02 23:55:21;;;;;;;57.00;22.63;;;-0.70;99.90;;;;;;6268687;23;19987;-85
2021/01/02 23:57:47;;;;;;;68.93;25.70;;;-0.80;99.90;;;;;;6238629;23;20024;-84
